Time;durP1;ratioP1;P1;durP2;ratioP2;P2;SDS_P1;SDS_P2;PMS_P1;PMS_P2;Temp;Humidity;BMP_temperature;BMP_pressure;BME280_temperature;BME280_humidity;BME280_pressure;Samples;Min_cycle;Max_cycle;Signal;HPM_P1;HPM_P2
2023/05/10 00:01:11;;;;;;;4.80;2.90;;;;;;;13.17;56.09;100042.21;108063;1256;59220;-67
2023/05/10 00:03:38;;;;;;;5.70;3.30;;;;;;;13.19;56.09;100025.45;108032;1256;59864;-67
2023/05/10 00:06:05;;;;;;;5.00;2.90;;;;;;;13.20;56.40;100030.08;108025;1257;59578;-65
2023/05/10 00:08:31;;;;;;;7.30;3.10;;;;;;;13.20;56.40;100025.95;108100;1256;60730;-66
2023/05/10 00:10:57;;;;;;;4.00;2.80;;;;;;;13.20;56.35;100026.89;108083;1259;59287;-66
2023/05/10 00:13:24;;;;;;;6.20;2.80;;;;;;;13.19;56.58;100025.44;108046;1257;59667;-66
2023/05/10 00:15:51;;;;;;;5.20;3.00;;;;;;;13.20;56.44;100030.25;108074;1259;70015;-66
2023/05/10 00:18:17;;;;;;;5.10;2.90;;;;;;;13.21;56.60;100026.92;108079;1257;58966;-66
2023/05/10 00:20:45;;;;;;;4.10;2.90;;;;;;;13.23;56.68;100022.00;107991;1260;59501;-66
2023/05/10 00:23:12;;;;;;;5.50;2.80;;;;;;;13.23;56.74;100021.83;108084;1257;61438;-66
2023/05/10 00:25:39;;;;;;;5.00;3.20;;;;;;;13.24;56.86;100019.99;108006;1258;73481;-66
2023/05/10 00:28:05;;;;;;;5.40;3.10;;;;;;;13.23;57.27;100017.08;107997;1260;59490;-67
2023/05/10 00:30:32;;;;;;;6.60;3.30;;;;;;;13.20;57.25;100012.70;107982;1257;60020;-67
2023/05/10 00:32:58;;;;;;;6.20;3.40;;;;;;;13.18;57.68;100015.90;107956;1257;59847;-67
2023/05/10 00:35:25;;;;;;;5.80;3.80;;;;;;;13.17;58.01;100010.78;108019;1257;59412;-66
2023/05/10 00:37:52;;;;;;;6.50;4.00;;;;;;;13.14;58.41;100005.71;108048;1257;74729;-66
2023/05/10 00:40:18;;;;;;;6.70;3.90;;;;;;;13.08;58.74;100001.17;107975;1258;59166;-66
2023/05/10 00:42:45;;;;;;;5.40;3.50;;;;;;;13.01;59.30;100001.15;107990;1259;59559;-66
2023/05/10 00:45:11;;;;;;;5.00;3.40;;;;;;;12.94;59.65;99994.77;107978;1256;59411;-66
2023/05/10 00:47:39;;;;;;;4.90;3.20;;;;;;;12.86;59.99;99997.33;108029;1257;59517;-66
2023/05/10 00:50:06;;;;;;;6.70;3.80;;;;;;;12.80;60.51;99994.71;108004;1257;73114;-68
2023/05/10 00:52:33;;;;;;;6.40;3.80;;;;;;;12.74;60.60;99997.46;108101;1256;71844;-66
2023/05/10 00:55:00;;;;;;;7.30;3.70;;;;;;;12.69;61.00;99997.72;108032;1257;71830;-65
2023/05/10 00:57:26;;;;;;;6.50;3.90;;;;;;;12.64;61.25;99998.73;107831;1257;61818;-67
2023/05/10 00:59:53;;;;;;;6.80;3.90;;;;;;;12.59;61.50;99996.33;108022;1256;59511;-67
2023/05/10 01:02:19;;;;;;;6.00;3.50;;;;;;;12.57;61.54;99991.25;107976;1257;73110;-67
2023/05/10 01:04:47;;;;;;;7.90;3.90;;;;;;;12.56;61.67;99991.58;107980;1257;59888;-67
2023/05/10 01:07:13;;;;;;;6.60;4.10;;;;;;;12.54;61.65;99991.91;107871;1256;71288;-67
2023/05/10 01:09:40;;;;;;;6.10;3.80;;;;;;;12.51;61.83;99984.62;107982;1256;59784;-67
2023/05/10 01:12:07;;;;;;;6.00;4.00;;;;;;;12.49;62.07;99983.14;107997;1257;59786;-67
2023/05/10 01:14:36;;;;;;;7.50;3.90;;;;;;;12.46;62.19;99984.29;107851;1257;75199;-67
2023/05/10 01:17:04;;;;;;;4.80;3.90;;;;;;;12.42;62.58;99980.73;108007;1256;70180;-67
2023/05/10 01:19:34;;;;;;;7.20;4.00;;;;;;;12.39;62.78;99976.52;107972;1257;73033;-67
2023/05/10 01:22:13;;;;;;;7.60;4.40;;;;;;;12.37;62.86;99978.02;108015;1262;59805;-67
2023/05/10 01:25:11;;;;;;;8.20;4.30;;;;;;;12.34;63.28;99977.63;108070;1257;59045;-67
2023/05/10 01:27:46;;;;;;;7.20;4.40;;;;;;;12.30;63.63;99983.10;108087;1256;72384;-67
2023/05/10 01:30:38;;;;;;;5.80;3.90;;;;;;;12.27;63.67;99984.82;108067;1256;70396;-67
2023/05/10 01:33:13;;;;;;;6.50;4.20;;;;;;;12.26;63.70;99986.73;108052;1257;71290;-67
2023/05/10 01:35:47;;;;;;;7.20;4.40;;;;;;;12.26;63.88;99988.37;108000;1260;60787;-67
2023/05/10 01:38:17;;;;;;;6.40;4.30;;;;;;;12.25;63.81;99987.44;108068;1256;59587;-67
2023/05/10 01:41:06;;;;;;;7.80;4.50;;;;;;;12.24;63.89;99988.46;108032;1257;74348;-67
2023/05/10 01:43:42;;;;;;;6.60;4.50;;;;;;;12.22;64.05;99989.94;108064;1256;71320;-67
2023/05/10 01:46:12;;;;;;;7.90;4.50;;;;;;;12.20;64.25;99986.23;108033;1256;70331;-67
2023/05/10 01:48:46;;;;;;;5.60;4.20;;;;;;;12.20;64.13;99989.36;108044;1257;60810;-67
2023/05/10 01:51:19;;;;;;;7.90;4.70;;;;;;;12.19;64.40;99988.70;108047;1257;60391;-67
2023/05/10 01:53:48;;;;;;;6.50;4.40;;;;;;;12.17;64.50;99984.02;108074;1256;74724;-67
2023/05/10 01:56:16;;;;;;;5.90;4.50;;;;;;;12.15;64.75;99985.04;108067;1257;72177;-66
2023/05/10 01:58:47;;;;;;;7.10;4.30;;;;;;;12.12;64.90;99983.61;108082;1256;71817;-68
2023/05/10 02:01:15;;;;;;;6.30;4.60;;;;;;;12.08;65.19;99979.86;108054;1256;62525;-66
2023/05/10 02:03:43;;;;;;;8.40;4.70;;;;;;;12.05;65.47;99982.26;108052;1257;60638;-66
2023/05/10 02:06:12;;;;;;;6.70;4.80;;;;;;;12.00;65.68;99981.42;108096;1256;73557;-68
2023/05/10 02:08:39;;;;;;;5.90;4.30;;;;;;;11.98;65.93;99981.90;107951;1256;69767;-66
2023/05/10 02:11:07;;;;;;;6.70;4.80;;;;;;;11.97;66.32;99980.31;107893;1257;71842;-66
2023/05/10 02:13:37;;;;;;;6.40;4.40;;;;;;;11.95;66.44;99973.81;108104;1256;61747;-66
2023/05/10 02:16:05;;;;;;;5.00;4.20;;;;;;;11.92;66.74;99974.98;107910;1257;59523;-66
2023/05/10 02:18:33;;;;;;;7.40;4.80;;;;;;;11.88;67.14;99975.41;107939;1256;73474;-66
2023/05/10 02:21:01;;;;;;;6.60;5.00;;;;;;;11.84;67.45;99976.63;108057;1256;70659;-66
2023/05/10 02:23:29;;;;;;;7.00;5.10;;;;;;;11.80;67.76;99974.52;108065;1257;70643;-66
2023/05/10 02:25:57;;;;;;;7.80;4.70;;;;;;;11.76;68.06;99972.88;108055;1256;60617;-66
2023/05/10 02:28:27;;;;;;;7.30;5.20;;;;;;;11.73;68.37;99971.15;108062;1257;60933;-66
2023/05/10 02:30:55;;;;;;;7.50;5.10;;;;;;;11.70;68.49;99971.55;108045;1256;74305;-66
2023/05/10 02:33:22;;;;;;;8.10;5.30;;;;;;;11.68;68.74;99973.09;108084;1257;69818;-66
2023/05/10 02:35:50;;;;;;;7.50;5.50;;;;;;;11.66;68.95;99972.11;107967;1257;71252;-66
2023/05/10 02:38:20;;;;;;;7.90;5.40;;;;;;;11.65;68.99;99970.47;108030;1256;61815;-66
2023/05/10 02:40:47;;;;;;;7.50;5.20;;;;;;;11.63;69.39;99968.70;108077;1257;59523;-66
2023/05/10 02:43:16;;;;;;;7.30;5.50;;;;;;;11.63;69.34;99969.28;108010;1260;74439;-66
2023/05/10 02:45:43;;;;;;;7.30;5.40;;;;;;;11.63;69.61;99965.23;108056;1256;69662;-66
2023/05/10 02:48:10;;;;;;;6.60;5.00;;;;;;;11.62;69.80;99969.27;108081;1257;72604;-66
2023/05/10 02:50:41;;;;;;;7.10;5.40;;;;;;;11.61;69.94;99964.61;108082;1256;61668;-66
2023/05/10 02:53:17;;;;;;;6.70;5.40;;;;;;;11.60;69.94;99968.06;108071;1256;60461;-66
2023/05/10 02:55:49;;;;;;;6.90;5.40;;;;;;;11.60;70.21;99971.15;108115;1261;75171;-67
2023/05/10 02:58:15;;;;;;;8.40;5.70;;;;;;;11.56;70.71;99961.66;108059;1261;69954;-66
2023/05/10 03:00:41;;;;;;;8.80;5.70;;;;;;;11.55;70.61;99966.14;108078;1257;60167;-67
2023/05/10 03:03:08;;;;;;;6.80;5.30;;;;;;;11.53;70.95;99963.16;108054;1256;59665;-67
2023/05/10 03:05:35;;;;;;;8.30;5.60;;;;;;;11.52;70.94;99962.96;108031;1256;59597;-67
2023/05/10 03:08:03;;;;;;;7.20;5.60;;;;;;;11.53;71.08;99961.41;108044;1256;59078;-67
2023/05/10 03:10:32;;;;;;;7.10;5.50;;;;;;;11.55;71.13;99958.88;108057;1262;69991;-67
2023/05/10 03:13:07;;;;;;;7.50;5.30;;;;;;;11.57;71.27;99955.77;108052;1257;71848;-66
2023/05/10 03:16:02;;;;;;;7.10;5.70;;;;;;;11.57;71.26;99960.10;108065;1256;62090;-67
2023/05/10 03:19:11;;;;;;;7.50;5.30;;;;;;;11.57;71.31;99958.35;108103;1261;60820;-67
2023/05/10 03:21:44;;;;;;;6.40;5.20;;;;;;;11.57;71.51;99958.19;108064;1257;73948;-66
2023/05/10 03:24:12;;;;;;;7.20;5.50;;;;;;;11.57;71.58;99957.61;107925;1257;240751;-67
2023/05/10 03:26:40;;;;;;;7.80;5.70;;;;;;;11.58;71.77;99958.90;108054;1257;71714;-66
2023/05/10 03:29:08;;;;;;;8.50;5.60;;;;;;;11.60;71.88;99963.06;108090;1256;60525;-67
2023/05/10 03:31:35;;;;;;;8.90;5.80;;;;;;;11.62;72.19;99966.20;107992;1259;59105;-68
2023/05/10 03:34:02;;;;;;;6.70;5.40;;;;;;;11.62;72.60;99964.58;108095;1256;72455;-67
2023/05/10 03:36:28;;;;;;;7.60;5.50;;;;;;;11.63;72.52;99964.86;108104;1257;70083;-66
2023/05/10 03:38:55;;;;;;;7.90;5.70;;;;;;;11.65;72.90;99956.78;108073;1257;72106;-67
2023/05/10 03:41:21;;;;;;;7.90;5.90;;;;;;;11.67;73.13;99957.07;108079;1256;59532;-67
2023/05/10 03:43:48;;;;;;;9.10;6.00;;;;;;;11.68;73.53;99964.23;107962;1263;59324;-67
2023/05/10 03:46:15;;;;;;;6.50;5.60;;;;;;;11.68;73.80;99959.77;108120;1257;74498;-67
2023/05/10 03:48:41;;;;;;;7.10;5.80;;;;;;;11.68;74.04;99962.27;107967;1257;59457;-65
2023/05/10 03:51:08;;;;;;;7.60;5.80;;;;;;;11.68;74.48;99964.23;108069;1256;73458;-66
2023/05/10 03:53:35;;;;;;;9.20;6.10;;;;;;;11.67;74.64;99961.56;108096;1257;59268;-66
2023/05/10 03:56:01;;;;;;;8.80;6.30;;;;;;;11.67;75.20;99961.33;108110;1258;59488;-66
2023/05/10 03:58:28;;;;;;;7.00;5.70;;;;;;;11.67;75.34;99960.96;108097;1257;75856;-66
2023/05/10 04:00:55;;;;;;;7.70;5.70;;;;;;;11.69;75.41;99958.34;107955;1257;70930;-66
2023/05/10 04:03:21;;;;;;;7.60;5.60;;;;;;;11.70;75.93;99958.05;108066;1260;71436;-66
2023/05/10 04:05:48;;;;;;;7.30;6.10;;;;;;;11.70;76.15;99954.21;108110;1257;61594;-66
2023/05/10 04:08:16;;;;;;;6.70;5.90;;;;;;;11.71;76.57;99958.35;108107;1257;59103;-66
2023/05/10 04:10:43;;;;;;;7.60;5.80;;;;;;;11.73;76.60;99956.64;108094;1257;73505;-66
2023/05/10 04:13:09;;;;;;;7.80;6.00;;;;;;;11.73;76.81;99960.16;108042;1257;72202;-66
2023/05/10 04:15:36;;;;;;;7.90;6.10;;;;;;;11.74;77.04;99956.20;108135;1257;72767;-66
2023/05/10 04:18:03;;;;;;;8.10;6.30;;;;;;;11.74;77.27;99957.21;108150;1257;59279;-68
2023/05/10 04:20:33;;;;;;;7.70;6.30;;;;;;;11.74;77.35;99954.92;108125;1257;59521;-67
2023/05/10 04:22:59;;;;;;;7.30;5.90;;;;;;;11.76;77.37;99958.94;108134;1257;74607;-67
2023/05/10 04:25:26;;;;;;;7.50;6.30;;;;;;;11.78;77.66;99960.17;108138;1261;69640;-67
2023/05/10 04:27:52;;;;;;;7.50;6.30;;;;;;;11.80;77.87;99962.67;108066;1257;59220;-67
2023/05/10 04:30:19;;;;;;;9.10;5.90;;;;;;;11.81;77.91;99965.11;108015;1257;60030;-67
2023/05/10 04:32:45;;;;;;;7.60;6.30;;;;;;;11.82;78.02;99966.55;107896;1256;60796;-67
2023/05/10 04:35:12;;;;;;;8.20;6.60;;;;;;;11.85;78.13;99971.95;108023;1258;60090;-67
2023/05/10 04:37:38;;;;;;;10.30;6.30;;;;;;;11.88;78.43;99975.16;108165;1260;58933;-68
2023/05/10 04:40:06;;;;;;;8.00;6.20;;;;;;;11.89;78.52;99972.08;108089;1257;59562;-71
2023/05/10 04:42:32;;;;;;;7.10;6.30;;;;;;;11.92;78.69;99962.52;108231;1256;59810;-71
2023/05/10 04:44:59;;;;;;;9.10;6.20;;;;;;;11.97;78.80;99960.11;108214;1257;59665;-71
2023/05/10 04:47:26;;;;;;;8.90;6.60;;;;;;;12.00;79.13;99962.90;108183;1257;74753;-70
2023/05/10 04:49:52;;;;;;;10.10;6.70;;;;;;;12.03;79.55;99960.74;108267;1256;70031;-69
2023/05/10 04:52:19;;;;;;;8.20;6.40;;;;;;;12.08;79.97;99963.85;108205;1259;60092;-69
2023/05/10 04:54:45;;;;;;;8.40;6.50;;;;;;;12.10;80.22;99966.39;108149;1257;60470;-71
2023/05/10 04:57:12;;;;;;;7.90;6.70;;;;;;;12.13;80.41;99961.55;108218;1257;59102;-71
2023/05/10 04:59:38;;;;;;;8.80;6.70;;;;;;;12.13;80.87;99973.50;108086;1257;59557;-71
2023/05/10 05:02:05;;;;;;;7.20;6.40;;;;;;;12.14;80.98;99971.50;108232;1257;59453;-70
2023/05/10 05:04:32;;;;;;;7.40;6.00;;;;;;;12.16;81.26;99975.44;108241;1256;70502;-70
2023/05/10 05:06:58;;;;;;;8.10;6.10;;;;;;;12.16;81.49;99984.69;108202;1259;59356;-70
2023/05/10 05:09:25;;;;;;;7.60;6.50;;;;;;;12.16;81.78;99989.69;108241;1257;59201;-70
2023/05/10 05:11:51;;;;;;;8.90;6.40;;;;;;;12.18;81.79;99988.08;108156;1257;59091;-70
2023/05/10 05:14:20;;;;;;;9.10;6.50;;;;;;;12.19;82.03;99990.95;108244;1256;60799;-70
2023/05/10 05:16:47;;;;;;;7.90;6.00;;;;;;;12.20;82.30;100002.36;108198;1257;71528;-71
2023/05/10 05:19:13;;;;;;;8.00;6.80;;;;;;;12.22;82.56;100008.42;108235;1256;62525;-70
2023/05/10 05:21:40;;;;;;;8.60;6.10;;;;;;;12.22;82.83;100013.83;108221;1260;60968;-69
2023/05/10 05:24:07;;;;;;;8.30;6.50;;;;;;;12.22;83.46;100009.48;108232;1257;73986;-69
2023/05/10 05:26:34;;;;;;;9.50;6.40;;;;;;;12.22;83.60;100011.16;108186;1256;70886;-69
2023/05/10 05:29:01;;;;;;;8.90;6.40;;;;;;;12.21;83.56;100018.23;108144;1257;72714;-70
2023/05/10 05:31:27;;;;;;;10.10;6.90;;;;;;;12.22;83.96;100021.96;108198;1256;61021;-69
2023/05/10 05:33:55;;;;;;;7.90;6.90;;;;;;;12.24;84.25;100023.31;108175;1257;60778;-69
2023/05/10 05:36:22;;;;;;;8.70;6.70;;;;;;;12.28;84.82;100022.54;108246;1257;75073;-70
2023/05/10 05:38:48;;;;;;;7.70;6.10;;;;;;;12.27;85.26;100024.34;108065;1261;71993;-69
2023/05/10 05:41:15;;;;;;;9.00;6.40;;;;;;;12.27;85.61;100028.84;108118;1257;62721;-69
2023/05/10 05:43:41;;;;;;;8.10;6.10;;;;;;;12.27;86.02;100036.86;108153;1259;62539;-70
2023/05/10 05:46:08;;;;;;;9.20;7.30;;;;;;;12.26;85.88;100037.27;108173;1256;59461;-70
2023/05/10 05:48:35;;;;;;;9.20;6.80;;;;;;;12.31;85.79;100031.84;108204;1257;75439;-70
2023/05/10 05:51:01;;;;;;;9.20;7.30;;;;;;;12.38;85.59;100036.21;108051;1257;70008;-70
2023/05/10 05:53:30;;;;;;;7.70;6.70;;;;;;;12.45;85.65;100035.45;108198;1257;70660;-70
2023/05/10 05:55:58;;;;;;;8.10;6.90;;;;;;;12.51;85.35;100039.27;108225;1257;59437;-69
2023/05/10 05:58:25;;;;;;;9.10;7.00;;;;;;;12.59;85.24;100045.28;108153;1257;59882;-69
2023/05/10 06:00:53;;;;;;;9.80;7.80;;;;;;;12.69;85.44;100044.55;108235;1257;73472;-69
2023/05/10 06:03:20;;;;;;;8.80;6.90;;;;;;;12.75;85.71;100045.33;108139;1257;70179;-69
2023/05/10 06:05:47;;;;;;;10.50;7.20;;;;;;;12.80;86.06;100050.85;108202;1257;73020;-69
2023/05/10 06:08:13;;;;;;;10.00;6.30;;;;;;;12.83;86.31;100054.57;108043;1257;62164;-69
2023/05/10 06:10:40;;;;;;;10.10;6.80;;;;;;;12.84;86.76;100054.38;108250;1257;59056;-69
2023/05/10 06:13:06;;;;;;;8.80;6.70;;;;;;;12.87;87.26;100059.70;108214;1256;59452;-71
2023/05/10 06:15:33;;;;;;;7.20;6.40;;;;;;;12.91;87.88;100061.20;108177;1261;69911;-69
2023/05/10 06:17:59;;;;;;;8.40;6.70;;;;;;;12.90;88.29;100067.45;108172;1257;72777;-69
2023/05/10 06:20:26;;;;;;;8.70;6.80;;;;;;;12.92;88.61;100066.00;108205;1257;62053;-70
2023/05/10 06:22:53;;;;;;;7.20;6.40;;;;;;;12.95;89.03;100072.32;108170;1260;60954;-70
2023/05/10 06:25:20;;;;;;;7.40;6.10;;;;;;;12.98;88.94;100068.87;108164;1257;59065;-69
2023/05/10 06:27:46;;;;;;;7.60;6.30;;;;;;;13.01;88.76;100070.85;108104;1257;71318;-69
2023/05/10 06:30:18;;;;;;;7.30;5.70;;;;;;;13.04;88.70;100072.91;108158;1260;72961;-70
2023/05/10 06:32:45;;;;;;;9.20;6.40;;;;;;;13.05;88.48;100067.91;108227;1260;59731;-70
2023/05/10 06:35:12;;;;;;;8.20;6.10;;;;;;;13.09;88.64;100069.52;108184;1257;60889;-71
2023/05/10 06:37:39;;;;;;;7.80;5.90;;;;;;;13.15;88.73;100072.49;108100;1261;73143;-69
2023/05/10 06:40:06;;;;;;;7.90;6.10;;;;;;;13.20;88.91;100072.20;108216;1257;71803;-69
2023/05/10 06:42:33;;;;;;;8.20;5.70;;;;;;;13.25;88.66;100070.55;108228;1257;71428;-69
2023/05/10 06:44:59;;;;;;;7.90;5.80;;;;;;;13.32;88.72;100075.94;108262;1257;59398;-71
2023/05/10 06:47:26;;;;;;;7.80;6.00;;;;;;;13.36;88.60;100071.00;108108;1262;59463;-71
2023/05/10 06:49:52;;;;;;;8.50;5.90;;;;;;;13.41;88.52;100074.31;108058;1263;59840;-72
2023/05/10 06:52:19;;;;;;;6.80;5.60;;;;;;;13.43;89.42;100077.76;108209;1257;59600;-69
2023/05/10 06:54:45;;;;;;;8.00;5.60;;;;;;;13.46;89.47;100078.20;108206;1256;72553;-69
2023/05/10 06:57:12;;;;;;;6.50;5.20;;;;;;;13.50;89.22;100080.08;108201;1257;60987;-69
2023/05/10 06:59:57;;;;;;;7.20;5.30;;;;;;;13.54;89.15;100081.71;108149;1261;60484;-69
2023/05/10 07:02:23;;;;;;;7.20;5.90;;;;;;;13.55;88.86;100086.34;108058;1256;76428;-69
2023/05/10 07:04:51;;;;;;;6.90;5.30;;;;;;;13.53;89.55;100085.48;108239;1257;59517;-69
2023/05/10 07:07:18;;;;;;;7.80;5.60;;;;;;;13.55;89.63;100085.07;108163;1257;72688;-69
2023/05/10 07:09:45;;;;;;;6.30;5.10;;;;;;;13.57;89.34;100089.16;108152;1256;61359;-69
2023/05/10 07:12:12;;;;;;;7.90;5.50;;;;;;;13.60;89.79;100092.02;108199;1258;60062;-71
2023/05/10 07:14:41;;;;;;;6.60;5.30;;;;;;;13.63;89.98;100096.30;108187;1261;74578;-71
2023/05/10 07:17:08;;;;;;;7.30;5.40;;;;;;;13.66;89.97;100094.50;108212;1257;70944;-72
2023/05/10 07:19:35;;;;;;;6.30;5.50;;;;;;;13.65;90.46;100098.77;108129;1262;59474;-70
2023/05/10 07:22:01;;;;;;;7.20;5.10;;;;;;;13.61;90.56;100098.98;108041;1259;63117;-71
2023/05/10 07:24:28;;;;;;;6.60;5.30;;;;;;;13.56;90.66;100099.98;108171;1257;59033;-70
2023/05/10 07:26:55;;;;;;;8.00;5.30;;;;;;;13.58;91.16;100100.10;108204;1257;73196;-69
2023/05/10 07:29:21;;;;;;;5.90;5.00;;;;;;;13.62;91.37;100104.80;108188;1258;70254;-69
2023/05/10 07:31:48;;;;;;;6.90;5.10;;;;;;;13.67;91.83;100105.13;108121;1257;72016;-69
2023/05/10 07:34:14;;;;;;;6.70;5.30;;;;;;;13.71;91.68;100107.53;108208;1258;62931;-69
2023/05/10 07:36:41;;;;;;;6.90;5.20;;;;;;;13.74;91.84;100111.74;108143;1258;60034;-69
2023/05/10 07:39:08;;;;;;;7.40;5.10;;;;;;;13.78;91.79;100116.86;108206;1258;73595;-69
2023/05/10 07:41:34;;;;;;;6.40;5.30;;;;;;;13.86;92.23;100113.63;108216;1258;71243;-72
2023/05/10 07:44:01;;;;;;;7.30;5.80;;;;;;;13.90;92.21;100115.79;108209;1257;72797;-72
2023/05/10 07:46:28;;;;;;;6.20;5.00;;;;;;;13.92;92.54;100117.30;108226;1260;60184;-71
2023/05/10 07:48:55;;;;;;;6.10;5.20;;;;;;;13.90;92.94;100124.94;108235;1257;59165;-70
2023/05/10 07:51:22;;;;;;;6.10;5.40;;;;;;;13.84;93.29;100123.03;108095;1257;75018;-69
2023/05/10 07:53:49;;;;;;;5.70;4.90;;;;;;;13.82;93.74;100121.85;108090;1263;70419;-71
2023/05/10 07:56:23;;;;;;;6.90;5.20;;;;;;;13.83;94.32;100125.95;108050;1257;71483;-69
2023/05/10 07:58:49;;;;;;;8.00;5.70;;;;;;;13.85;94.63;100127.48;108191;1262;61864;-71
2023/05/10 08:01:16;;;;;;;6.10;5.40;;;;;;;13.90;95.10;100131.95;108213;1261;59705;-70
2023/05/10 08:03:42;;;;;;;7.30;5.60;;;;;;;13.98;95.48;100133.52;108091;1260;59015;-70
2023/05/10 08:06:09;;;;;;;6.40;5.60;;;;;;;14.00;95.82;100138.08;108145;1257;70009;-70
2023/05/10 08:08:35;;;;;;;6.40;5.30;;;;;;;13.98;96.62;100138.20;108166;1256;73259;-70
2023/05/10 08:11:03;;;;;;;6.70;5.60;;;;;;;13.97;96.94;100142.72;108171;1260;59805;-70
2023/05/10 08:13:31;;;;;;;6.60;5.50;;;;;;;13.94;97.83;100147.27;108225;1257;60766;-69
2023/05/10 08:15:58;;;;;;;6.90;5.90;;;;;;;13.86;98.94;100148.45;108206;1258;74449;-70
2023/05/10 08:18:24;;;;;;;6.60;5.90;;;;;;;13.82;99.82;100156.91;108212;1256;69650;-69
2023/05/10 08:20:51;;;;;;;5.80;5.10;;;;;;;13.79;99.94;100163.98;108089;1257;72274;-69
2023/05/10 08:23:18;;;;;;;8.20;5.70;;;;;;;13.76;100.00;100168.20;108180;1260;59206;-69
2023/05/10 08:25:44;;;;;;;10.00;6.10;;;;;;;13.70;100.00;100176.25;108162;1257;59383;-69
2023/05/10 08:28:11;;;;;;;6.70;5.10;;;;;;;13.66;100.00;100175.28;108128;1263;74899;-69
2023/05/10 08:30:37;;;;;;;7.50;4.90;;;;;;;13.59;100.00;100179.85;108134;1262;59736;-69
2023/05/10 08:33:04;;;;;;;6.20;4.80;;;;;;;13.58;100.00;100183.25;108179;1257;72879;-69
2023/05/10 08:35:32;;;;;;;5.10;4.00;;;;;;;13.58;100.00;100180.38;108151;1258;61887;-70
2023/05/10 08:37:59;;;;;;;4.10;3.20;;;;;;;13.58;100.00;100184.23;108145;1257;59772;-70
2023/05/10 08:40:26;;;;;;;5.00;3.40;;;;;;;13.59;100.00;100188.70;108001;1258;75119;-70
2023/05/10 08:43:08;;;;;;;4.80;3.00;;;;;;;13.64;100.00;100191.33;108105;1262;70551;-70
2023/05/10 08:45:41;;;;;;;4.40;3.10;;;;;;;13.69;100.00;100193.61;108168;1257;71541;-70
2023/05/10 08:48:10;;;;;;;3.60;2.70;;;;;;;13.75;100.00;100194.09;108065;1257;60783;-70
2023/05/10 08:50:38;;;;;;;3.20;2.60;;;;;;;13.76;100.00;100193.80;108167;1260;60140;-70
2023/05/10 08:53:09;;;;;;;3.20;2.20;;;;;;;13.81;100.00;100196.63;108180;1257;74494;-70
2023/05/10 08:55:40;;;;;;;3.30;2.10;;;;;;;13.90;100.00;100200.66;108070;1257;72175;-69
2023/05/10 08:58:06;;;;;;;2.40;1.70;;;;;;;13.96;100.00;100200.48;108072;1257;71508;-69
2023/05/10 09:00:34;;;;;;;2.70;1.70;;;;;;;14.06;100.00;100203.54;108183;1257;60850;-69
2023/05/10 09:03:03;;;;;;;2.40;1.40;;;;;;;14.17;100.00;100203.95;108134;1257;59566;-71
2023/05/10 09:05:30;;;;;;;2.10;1.20;;;;;;;14.26;100.00;100205.48;108152;1257;75175;-69
2023/05/10 09:08:00;;;;;;;2.00;1.30;;;;;;;14.26;100.00;100213.55;108198;1257;69694;-69
2023/05/10 09:10:27;;;;;;;1.90;1.10;;;;;;;14.26;100.00;100223.90;108079;1257;72084;-69
2023/05/10 09:12:56;;;;;;;2.30;1.20;;;;;;;14.23;100.00;100226.67;108175;1260;60442;-69
2023/05/10 09:15:25;;;;;;;1.90;1.00;;;;;;;14.20;100.00;100228.27;108170;1257;60091;-70
2023/05/10 09:17:52;;;;;;;2.10;1.10;;;;;;;14.18;100.00;100232.87;108209;1260;75015;-70
2023/05/10 09:20:19;;;;;;;1.70;1.30;;;;;;;14.17;100.00;100232.99;108066;1257;71951;-70
2023/05/10 09:22:46;;;;;;;2.20;1.40;;;;;;;14.20;100.00;100234.77;108208;1257;72199;-70
2023/05/10 09:25:15;;;;;;;2.60;1.70;;;;;;;14.18;100.00;100241.64;108159;1257;60707;-71
2023/05/10 09:27:46;;;;;;;2.50;1.60;;;;;;;14.17;100.00;100243.63;108161;1260;59621;-70
2023/05/10 09:30:25;;;;;;;2.30;1.50;;;;;;;14.22;100.00;100246.36;108146;1256;73471;-69
2023/05/10 09:32:52;;;;;;;2.00;1.50;;;;;;;14.23;100.00;100250.79;108155;1257;69988;-69
2023/05/10 09:35:21;;;;;;;2.80;1.60;;;;;;;14.24;100.00;100253.67;108159;1257;72509;-69
2023/05/10 09:37:51;;;;;;;2.40;1.80;;;;;;;14.22;100.00;100256.55;108200;1257;61775;-69
2023/05/10 09:40:19;;;;;;;2.20;1.60;;;;;;;14.22;100.00;100261.09;108213;1257;60040;-69
2023/05/10 09:42:58;;;;;;;2.40;1.60;;;;;;;14.25;100.00;100261.38;108235;1257;74828;-70
2023/05/10 09:45:26;;;;;;;1.80;1.30;;;;;;;14.25;98.99;100269.02;108282;1257;70102;-70
2023/05/10 09:47:53;;;;;;;1.60;1.30;;;;;;;14.21;98.58;100269.02;108107;1257;73191;-70
2023/05/10 09:50:21;;;;;;;3.00;1.40;;;;;;;14.28;98.87;100270.77;108135;1257;61137;-70
2023/05/10 09:52:58;;;;;;;2.00;1.60;;;;;;;14.33;98.62;100271.50;108160;1257;60299;-70
2023/05/10 09:55:37;;;;;;;2.30;1.70;;;;;;;14.41;98.73;100276.81;108118;1257;75238;-71
2023/05/10 09:58:09;;;;;;;3.20;2.00;;;;;;;14.48;98.22;100276.45;108207;1257;72044;-70
2023/05/10 10:00:38;;;;;;;2.70;1.70;;;;;;;14.57;97.89;100280.17;108251;1257;71099;-70
2023/05/10 10:03:05;;;;;;;2.60;1.80;;;;;;;14.65;97.13;100282.88;108144;1257;62994;-70
2023/05/10 10:05:34;;;;;;;1.90;1.50;;;;;;;14.75;96.86;100283.85;108245;1256;59787;-70
2023/05/10 10:08:04;;;;;;;2.60;1.90;;;;;;;14.85;96.55;100291.81;108226;1257;75230;-70
2023/05/10 10:10:31;;;;;;;2.50;1.70;;;;;;;14.94;95.48;100286.79;108199;1257;70028;-70
2023/05/10 10:12:59;;;;;;;2.80;1.60;;;;;;;14.99;94.28;100287.27;108264;1256;71429;-70
2023/05/10 10:15:26;;;;;;;2.60;1.50;;;;;;;15.06;94.08;100289.93;108218;1256;61480;-70
2023/05/10 10:17:53;;;;;;;3.00;1.70;;;;;;;15.11;93.48;100293.57;108095;1257;59770;-70
2023/05/10 10:20:22;;;;;;;2.80;1.70;;;;;;;15.13;93.42;100293.97;108181;1257;73418;-71
2023/05/10 10:22:49;;;;;;;2.60;1.60;;;;;;;15.20;93.40;100299.02;108239;1257;71238;-70
2023/05/10 10:25:17;;;;;;;2.80;2.10;;;;;;;15.24;92.39;100300.20;108211;1257;71835;-70
2023/05/10 10:27:53;;;;;;;2.70;1.60;;;;;;;15.28;92.35;100303.46;108182;1257;60806;-70
2023/05/10 10:30:45;;;;;;;3.60;1.90;;;;;;;15.34;92.63;100302.80;108236;1257;59106;-68
2023/05/10 10:33:39;;;;;;;3.60;2.00;;;;;;;15.43;92.13;100302.29;108088;1257;75461;-70
2023/05/10 10:36:06;;;;;;;3.10;2.20;;;;;;;15.52;91.94;100303.08;108192;1257;71489;-70
2023/05/10 10:39:00;;;;;;;2.90;2.20;;;;;;;15.61;90.80;100305.65;108204;1257;71270;-70
2023/05/10 10:41:30;;;;;;;4.30;2.20;;;;;;;15.69;89.70;100302.34;108120;1257;61418;-70
2023/05/10 10:44:33;;;;;;;3.80;2.20;;;;;;;15.80;89.27;100308.16;108189;1255;60081;-69
2023/05/10 10:47:03;;;;;;;3.10;2.20;;;;;;;15.89;87.88;100305.62;108248;1257;73477;-70
2023/05/10 10:49:41;;;;;;;3.00;2.30;;;;;;;15.98;87.07;100306.60;108208;1258;70491;-70
2023/05/10 10:52:20;;;;;;;3.10;2.20;;;;;;;16.17;87.28;100306.02;108226;1257;71177;-70
2023/05/10 10:54:58;;;;;;;3.70;2.20;;;;;;;16.35;86.69;100302.85;108225;1257;61262;-70
2023/05/10 10:57:26;;;;;;;4.20;2.30;;;;;;;16.52;85.13;100305.05;108194;1256;59109;-70
2023/05/10 11:00:20;;;;;;;2.70;1.90;;;;;;;16.67;84.12;100304.27;108198;1257;76761;-70
2023/05/10 11:03:18;;;;;;;4.70;2.10;;;;;;;16.84;83.18;100309.48;108181;1257;72056;-70
2023/05/10 11:05:49;;;;;;;2.90;1.90;;;;;;;17.04;83.07;100303.73;108242;1257;72647;-70
2023/05/10 11:08:44;;;;;;;4.30;2.20;;;;;;;17.23;82.09;100306.70;108237;1260;62393;-70
2023/05/10 11:11:14;;;;;;;4.00;2.10;;;;;;;17.48;80.96;100304.75;108011;1256;59461;-70
2023/05/10 11:13:46;;;;;;;3.30;2.10;;;;;;;17.60;78.77;100306.26;108230;1256;75149;-70
2023/05/10 11:16:20;;;;;;;2.80;2.00;;;;;;;17.68;77.37;100303.21;108192;1257;72085;-70
2023/05/10 11:19:04;;;;;;;4.10;2.00;;;;;;;17.71;76.44;100305.70;108184;1257;73374;-71
2023/05/10 11:21:32;;;;;;;3.10;1.90;;;;;;;17.77;76.45;100311.48;108178;1257;59466;-70
2023/05/10 11:24:00;;;;;;;4.30;1.90;;;;;;;17.88;76.43;100313.14;108227;1256;59662;-70
2023/05/10 11:26:32;;;;;;;3.00;1.70;;;;;;;17.95;75.20;100313.76;108156;1257;74681;-71
2023/05/10 11:29:00;;;;;;;4.20;1.80;;;;;;;18.05;75.19;100314.90;108202;1258;71313;-70